Time;durP1;ratioP1;P1;durP2;ratioP2;P2;SDS_P1;SDS_P2;PMS_P1;PMS_P2;Temp;Humidity;BMP_temperature;BMP_pressure;BME280_temperature;BME280_humidity;BME280_pressure;Samples;Min_cycle;Max_cycle;Signal;HPM_P1;HPM_P2
2023/06/11 00:00:43;;;;;;;9.80;8.93;;;;;;;;;;5075235;28;20454;-61
2023/06/11 00:03:10;;;;;;;9.77;8.87;;;;;;;;;;5075254;28;20450;-61
2023/06/11 00:05:37;;;;;;;9.40;8.13;;;;;;;;;;5075033;28;20441;-61
2023/06/11 00:08:05;;;;;;;10.07;9.27;;;;;;;;;;5075096;28;20509;-61
2023/06/11 00:10:32;;;;;;;13.17;8.30;;;;;;;;;;5074484;28;20984;-61
2023/06/11 00:13:00;;;;;;;9.37;8.47;;;;;;;;;;5075318;28;20783;-61
2023/06/11 00:15:28;;;;;;;9.97;9.07;;;;;;;;;;5074462;28;20528;-61
2023/06/11 00:17:55;;;;;;;9.93;9.00;;;;;;;;;;5074795;28;20453;-61
2023/06/11 00:20:22;;;;;;;10.53;9.57;;;;;;;;;;5074749;28;20437;-61
2023/06/11 00:22:49;;;;;;;9.80;8.80;;;;;;;;;;5074762;28;20453;-61
2023/06/11 00:25:17;;;;;;;9.17;8.30;;;;;;;;;;5074801;28;20534;-61
2023/06/11 00:27:44;;;;;;;9.87;8.33;;;;;;;;;;5074597;28;20922;-61
2023/06/11 00:30:13;;;;;;;13.70;9.30;;;;;;;;;;5073950;28;21005;-61
2023/06/11 00:32:41;;;;;;;9.67;8.87;;;;;;;;;;5074644;28;20432;-61
2023/06/11 00:35:08;;;;;;;10.60;9.50;;;;;;;;;;5074100;28;20442;-61
2023/06/11 00:37:36;;;;;;;12.80;8.30;;;;;;;;;;5074154;28;20441;-61
2023/06/11 00:40:03;;;;;;;11.23;8.83;;;;;;;;;;5074333;28;20797;-61
2023/06/11 00:42:33;;;;;;;9.47;8.67;;;;;;;;;;5074341;28;20451;-61
2023/06/11 00:45:03;;;;;;;10.53;9.53;;;;;;;;;;5073793;28;20954;-61
2023/06/11 00:47:32;;;;;;;10.60;9.57;;;;;;;;;;5074939;28;20769;-61
2023/06/11 00:49:59;;;;;;;12.00;8.53;;;;;;;;;;5073820;28;21048;-61
2023/06/11 00:52:27;;;;;;;9.60;8.70;;;;;;;;;;5074120;28;20823;-61
2023/06/11 00:54:54;;;;;;;11.00;8.47;;;;;;;;;;5074022;28;20446;-61
2023/06/11 00:57:24;;;;;;;8.60;7.90;;;;;;;;;;5074617;28;20477;-61
2023/06/11 00:59:53;;;;;;;11.93;8.33;;;;;;;;;;5074067;28;20450;-61
2023/06/11 01:02:26;;;;;;;9.23;8.50;;;;;;;;;;5074101;28;20460;-61
2023/06/11 01:04:57;;;;;;;9.10;8.20;;;;;;;;;;5074124;28;20433;-62
2023/06/11 01:07:24;;;;;;;9.87;9.07;;;;;;;;;;5074207;28;20478;-61
2023/06/11 01:09:52;;;;;;;9.83;8.83;;;;;;;;;;5073914;28;20440;-61
2023/06/11 01:12:19;;;;;;;16.80;14.17;;;;;;;;;;5073319;28;21071;-61
2023/06/11 01:14:47;;;;;;;9.40;8.50;;;;;;;;;;5073787;28;20445;-61
2023/06/11 01:17:17;;;;;;;9.50;8.70;;;;;;;;;;5073673;28;20463;-61
2023/06/11 01:19:52;;;;;;;8.60;7.80;;;;;;;;;;5074277;28;20429;-61
2023/06/11 01:22:29;;;;;;;9.13;8.33;;;;;;;;;;5073299;28;20440;-62
2023/06/11 01:25:08;;;;;;;9.77;8.97;;;;;;;;;;5073996;28;20458;-61
2023/06/11 01:27:42;;;;;;;9.40;8.60;;;;;;;;;;5073286;28;20466;-61
2023/06/11 01:30:17;;;;;;;10.90;8.53;;;;;;;;;;5073706;28;20830;-61
2023/06/11 01:32:45;;;;;;;9.03;8.03;;;;;;;;;;5073188;28;20519;-62
2023/06/11 01:35:13;;;;;;;9.53;8.70;;;;;;;;;;5073810;28;20447;-61
2023/06/11 01:37:45;;;;;;;8.97;8.07;;;;;;;;;;5073431;28;20451;-61
2023/06/11 01:40:12;;;;;;;8.30;7.60;;;;;;;;;;5073566;28;20503;-61
2023/06/11 01:42:39;;;;;;;9.80;8.50;;;;;;;;;;5073306;28;20460;-61
2023/06/11 01:45:07;;;;;;;9.50;8.80;;;;;;;;;;5073406;28;20443;-61
2023/06/11 01:47:36;;;;;;;9.43;8.63;;;;;;;;;;5073325;28;20447;-61
2023/06/11 01:50:04;;;;;;;10.57;8.47;;;;;;;;;;5073345;28;20436;-61
2023/06/11 01:52:31;;;;;;;10.23;9.33;;;;;;;;;;5073197;28;20493;-62
2023/06/11 01:54:58;;;;;;;9.00;8.10;;;;;;;;;;5073064;28;20918;-61
2023/06/11 01:57:26;;;;;;;9.37;8.50;;;;;;;;;;5072775;28;20448;-62
2023/06/11 01:59:53;;;;;;;9.30;8.50;;;;;;;;;;5073227;28;20443;-61
2023/06/11 02:02:20;;;;;;;10.23;9.43;;;;;;;;;;5072828;28;20451;-62
2023/06/11 02:04:48;;;;;;;9.60;8.70;;;;;;;;;;5073321;28;20437;-62
2023/06/11 02:07:16;;;;;;;10.13;9.13;;;;;;;;;;5072830;28;20943;-62
2023/06/11 02:09:43;;;;;;;10.60;9.60;;;;;;;;;;5073141;28;20949;-61
2023/06/11 02:12:10;;;;;;;9.10;8.30;;;;;;;;;;5072646;28;21003;-62
2023/06/11 02:14:37;;;;;;;10.40;9.40;;;;;;;;;;5073159;28;20440;-62
2023/06/11 02:17:04;;;;;;;10.73;9.63;;;;;;;;;;5073369;28;20449;-62
2023/06/11 02:19:32;;;;;;;9.83;9.03;;;;;;;;;;5073480;28;20532;-62
2023/06/11 02:22:00;;;;;;;10.27;9.37;;;;;;;;;;5072960;28;20456;-62
2023/06/11 02:24:27;;;;;;;9.50;8.50;;;;;;;;;;5072776;28;20952;-62
2023/06/11 02:26:54;;;;;;;10.23;9.23;;;;;;;;;;5072937;28;20932;-62
2023/06/11 02:29:22;;;;;;;11.30;10.27;;;;;;;;;;5072618;28;21039;-62
2023/06/11 02:31:49;;;;;;;9.93;9.03;;;;;;;;;;5072768;28;20497;-62
2023/06/11 02:34:16;;;;;;;10.53;9.60;;;;;;;;;;5072624;28;20474;-62
2023/06/11 02:36:43;;;;;;;9.43;8.63;;;;;;;;;;5072778;28;20469;-62
2023/06/11 02:39:12;;;;;;;11.50;10.40;;;;;;;;;;5072920;28;20448;-62
2023/06/11 02:41:39;;;;;;;9.80;8.97;;;;;;;;;;5073235;28;20449;-62
2023/06/11 02:44:06;;;;;;;10.27;9.40;;;;;;;;;;5072829;28;20806;-62
2023/06/11 02:46:34;;;;;;;10.57;9.57;;;;;;;;;;5072753;28;20469;-62
2023/06/11 02:49:01;;;;;;;10.50;9.70;;;;;;;;;;5072753;28;20450;-62
2023/06/11 02:51:28;;;;;;;10.40;9.50;;;;;;;;;;5072620;28;20518;-63
2023/06/11 02:53:55;;;;;;;10.77;9.47;;;;;;;;;;5073199;28;20443;-62
2023/06/11 02:56:24;;;;;;;10.23;9.43;;;;;;;;;;5072858;28;20439;-62
2023/06/11 02:58:51;;;;;;;10.10;9.20;;;;;;;;;;5072357;28;20445;-62
2023/06/11 03:01:18;;;;;;;10.17;9.40;;;;;;;;;;5072772;28;20869;-62
2023/06/11 03:03:45;;;;;;;11.27;10.10;;;;;;;;;;5072279;28;20443;-62
2023/06/11 03:06:13;;;;;;;12.33;10.07;;;;;;;;;;5072350;28;20953;-62
2023/06/11 03:08:40;;;;;;;10.30;9.40;;;;;;;;;;5073968;28;20455;-62
2023/06/11 03:11:07;;;;;;;11.20;10.20;;;;;;;;;;5075711;28;20446;-62
2023/06/11 03:13:35;;;;;;;11.30;10.03;;;;;;;;;;5075840;28;20438;-62
2023/06/11 03:16:03;;;;;;;11.10;10.07;;;;;;;;;;5075780;28;20442;-62
2023/06/11 03:18:30;;;;;;;14.60;10.10;;;;;;;;;;5075648;28;20451;-62
2023/06/11 03:20:57;;;;;;;11.43;10.43;;;;;;;;;;5075696;28;20968;-62
2023/06/11 03:23:24;;;;;;;10.33;9.30;;;;;;;;;;5075877;28;20446;-62
2023/06/11 03:25:51;;;;;;;10.90;9.80;;;;;;;;;;5075871;28;20452;-62
2023/06/11 03:28:19;;;;;;;10.60;9.23;;;;;;;;;;5075776;28;20436;-62
2023/06/11 03:30:47;;;;;;;10.53;9.47;;;;;;;;;;5075230;28;21084;-61
2023/06/11 03:33:14;;;;;;;10.97;9.97;;;;;;;;;;5075569;28;20482;-62
2023/06/11 03:35:41;;;;;;;10.23;9.43;;;;;;;;;;5075721;28;20444;-62
2023/06/11 03:38:09;;;;;;;11.70;9.53;;;;;;;;;;5075577;28;20440;-62
2023/06/11 03:40:36;;;;;;;10.60;9.50;;;;;;;;;;5075642;28;20451;-62
2023/06/11 03:43:03;;;;;;;14.13;11.13;;;;;;;;;;5075472;28;20484;-62
2023/06/11 03:45:30;;;;;;;10.20;9.20;;;;;;;;;;5075659;28;20440;-63
2023/06/11 03:48:02;;;;;;;10.67;9.77;;;;;;;;;;5075414;28;21015;-62
2023/06/11 03:50:29;;;;;;;11.80;10.30;;;;;;;;;;5075240;28;20468;-62
2023/06/11 03:52:56;;;;;;;11.07;10.07;;;;;;;;;;5080412;28;20481;-62
2023/06/11 03:55:23;;;;;;;12.00;9.87;;;;;;;;;;5094442;28;20447;-62
2023/06/11 03:57:51;;;;;;;11.77;10.77;;;;;;;;;;5094249;28;20457;-63
2023/06/11 04:00:18;;;;;;;12.13;11.13;;;;;;;;;;5094221;28;20854;-62
2023/06/11 04:02:45;;;;;;;11.00;9.87;;;;;;;;;;5093995;28;20566;-63
2023/06/11 04:05:14;;;;;;;11.13;10.03;;;;;;;;;;5094044;28;20438;-62
2023/06/11 04:07:41;;;;;;;11.97;10.80;;;;;;;;;;5094323;28;20442;-62
2023/06/11 04:10:08;;;;;;;11.50;10.30;;;;;;;;;;5093978;28;20453;-62
2023/06/11 04:12:36;;;;;;;10.27;9.33;;;;;;;;;;5094435;28;20826;-62
2023/06/11 04:15:03;;;;;;;11.97;10.20;;;;;;;;;;5094677;28;20792;-62
2023/06/11 04:17:30;;;;;;;11.23;10.33;;;;;;;;;;5094243;28;20469;-62
2023/06/11 04:19:57;;;;;;;11.43;10.17;;;;;;;;;;5094206;28;20447;-62
2023/06/11 04:22:26;;;;;;;11.90;10.63;;;;;;;;;;5094279;28;20726;-62
2023/06/11 04:24:53;;;;;;;14.03;10.13;;;;;;;;;;5094166;28;20440;-62
2023/06/11 04:27:20;;;;;;;11.43;10.53;;;;;;;;;;5093932;28;20951;-62
2023/06/11 04:29:48;;;;;;;12.60;11.17;;;;;;;;;;5093851;28;20497;-62
2023/06/11 04:32:16;;;;;;;10.67;9.87;;;;;;;;;;5094280;28;20471;-62
2023/06/11 04:34:44;;;;;;;11.53;10.40;;;;;;;;;;5093946;28;20925;-62
2023/06/11 04:37:11;;;;;;;15.37;10.67;;;;;;;;;;5094125;28;20473;-62
2023/06/11 04:39:39;;;;;;;11.43;10.53;;;;;;;;;;5094439;28;20441;-62
2023/06/11 04:42:07;;;;;;;11.10;10.00;;;;;;;;;;5094165;28;20446;-62
2023/06/11 04:44:36;;;;;;;11.97;10.80;;;;;;;;;;5094088;28;20462;-62
2023/06/11 04:47:05;;;;;;;10.93;9.80;;;;;;;;;;5094091;28;20447;-62
2023/06/11 04:49:32;;;;;;;12.40;10.87;;;;;;;;;;5093862;28;20478;-62
2023/06/11 04:51:59;;;;;;;11.57;10.37;;;;;;;;;;5094072;28;20547;-62
2023/06/11 04:54:27;;;;;;;11.67;10.53;;;;;;;;;;5093740;28;20442;-62
2023/06/11 04:56:55;;;;;;;12.27;11.13;;;;;;;;;;5093392;28;20447;-62
2023/06/11 04:59:22;;;;;;;11.07;10.13;;;;;;;;;;5094022;28;21039;-62
2023/06/11 05:01:53;;;;;;;12.00;11.00;;;;;;;;;;5094408;28;20928;-62
2023/06/11 05:04:21;;;;;;;13.13;10.80;;;;;;;;;;5094010;28;20432;-62
2023/06/11 05:06:48;;;;;;;12.00;11.00;;;;;;;;;;5094254;28;20469;-62
2023/06/11 05:09:16;;;;;;;13.13;10.90;;;;;;;;;;5093640;28;20847;-62
2023/06/11 05:11:44;;;;;;;11.13;10.23;;;;;;;;;;5093598;28;20923;-62
2023/06/11 05:14:12;;;;;;;11.70;10.60;;;;;;;;;;5092948;28;20955;-62
2023/06/11 05:16:40;;;;;;;11.53;10.63;;;;;;;;;;5093495;28;20438;-62
2023/06/11 05:19:08;;;;;;;13.20;10.50;;;;;;;;;;5093771;28;20444;-62
2023/06/11 05:21:36;;;;;;;12.20;11.00;;;;;;;;;;5093598;28;20525;-62
2023/06/11 05:24:07;;;;;;;11.83;10.73;;;;;;;;;;5093637;28;21057;-62
2023/06/11 05:26:35;;;;;;;12.20;11.17;;;;;;;;;;5093602;28;20916;-62
2023/06/11 05:29:02;;;;;;;12.03;10.57;;;;;;;;;;5093326;28;20444;-62
2023/06/11 05:31:35;;;;;;;11.80;10.70;;;;;;;;;;5092109;28;20987;-62
2023/06/11 05:34:03;;;;;;;13.23;10.87;;;;;;;;;;5092801;28;20520;-62
2023/06/11 05:36:30;;;;;;;12.07;11.07;;;;;;;;;;5092918;28;20443;-62
2023/06/11 05:38:57;;;;;;;12.17;11.00;;;;;;;;;;5093532;28;20440;-62
2023/06/11 05:41:24;;;;;;;12.33;11.13;;;;;;;;;;5093565;28;20443;-62
2023/06/11 05:43:51;;;;;;;11.77;10.67;;;;;;;;;;5093151;28;20478;-62
2023/06/11 05:46:19;;;;;;;14.17;11.27;;;;;;;;;;5093134;28;20928;-62
2023/06/11 05:48:48;;;;;;;12.50;11.20;;;;;;;;;;5093176;28;20451;-62
2023/06/11 05:51:15;;;;;;;11.50;10.43;;;;;;;;;;5092749;28;20858;-62
2023/06/11 05:53:42;;;;;;;10.43;9.53;;;;;;;;;;5092399;28;20991;-62
2023/06/11 05:56:10;;;;;;;13.27;11.97;;;;;;;;;;5092674;28;21049;-62
2023/06/11 05:58:38;;;;;;;11.47;10.47;;;;;;;;;;5092687;28;20439;-62
2023/06/11 06:01:06;;;;;;;12.20;10.80;;;;;;;;;;5093298;28;20517;-62
2023/06/11 06:03:33;;;;;;;11.00;10.10;;;;;;;;;;5093025;28;20812;-62
2023/06/11 06:06:03;;;;;;;12.33;10.43;;;;;;;;;;5093228;28;20443;-62
2023/06/11 06:08:30;;;;;;;12.13;10.77;;;;;;;;;;5093114;28;20811;-62
2023/06/11 06:10:58;;;;;;;10.90;9.90;;;;;;;;;;5092740;28;20500;-62
2023/06/11 06:13:25;;;;;;;12.00;11.00;;;;;;;;;;5092766;28;20469;-62
2023/06/11 06:15:53;;;;;;;12.17;10.97;;;;;;;;;;5092730;28;20438;-62
2023/06/11 06:18:20;;;;;;;11.20;10.10;;;;;;;;;;5092540;28;20857;-62
2023/06/11 06:20:47;;;;;;;12.93;10.30;;;;;;;;;;5093200;28;20442;-62
2023/06/11 06:23:16;;;;;;;11.03;10.13;;;;;;;;;;5092940;28;20542;-62
2023/06/11 06:25:43;;;;;;;10.80;9.80;;;;;;;;;;5092682;28;20445;-62
2023/06/11 06:28:10;;;;;;;12.13;10.93;;;;;;;;;;5092994;28;20523;-62
2023/06/11 06:30:38;;;;;;;10.70;9.77;;;;;;;;;;5092288;28;20471;-62
2023/06/11 06:33:05;;;;;;;11.20;10.07;;;;;;;;;;5092333;28;20533;-62
2023/06/11 06:35:33;;;;;;;11.93;10.80;;;;;;;;;;5092500;28;20455;-62
2023/06/11 06:38:00;;;;;;;11.10;10.13;;;;;;;;;;5092241;28;20975;-62
2023/06/11 06:40:29;;;;;;;10.77;9.87;;;;;;;;;;5092773;28;20466;-62
2023/06/11 06:42:56;;;;;;;11.87;10.70;;;;;;;;;;5095518;28;20440;-63
2023/06/11 06:45:23;;;;;;;11.00;10.10;;;;;;;;;;5096466;28;20447;-64
2023/06/11 06:47:50;;;;;;;10.23;9.40;;;;;;;;;;5096760;28;20774;-62
2023/06/11 06:50:17;;;;;;;10.80;9.90;;;;;;;;;;5096075;28;20467;-62
2023/06/11 06:52:45;;;;;;;13.27;10.50;;;;;;;;;;5096152;28;20484;-62
2023/06/11 06:55:12;;;;;;;10.70;9.77;;;;;;;;;;5096233;28;20453;-62
2023/06/11 06:57:41;;;;;;;11.97;10.40;;;;;;;;;;5096010;28;20548;-62
2023/06/11 07:00:09;;;;;;;10.00;9.13;;;;;;;;;;5096525;28;20456;-62
2023/06/11 07:02:37;;;;;;;10.60;9.60;;;;;;;;;;5096215;28;20848;-65
2023/06/11 07:05:04;;;;;;;12.33;9.90;;;;;;;;;;5096570;28;20953;-63
2023/06/11 07:07:31;;;;;;;11.70;10.60;;;;;;;;;;5096413;28;20897;-62
2023/06/11 07:09:58;;;;;;;10.90;9.77;;;;;;;;;;5096021;28;20797;-63
2023/06/11 07:12:25;;;;;;;10.23;9.33;;;;;;;;;;5095617;28;20845;-63
2023/06/11 07:14:54;;;;;;;10.33;9.07;;;;;;;;;;5096200;28;20790;-63
2023/06/11 07:17:23;;;;;;;10.77;8.90;;;;;;;;;;5096360;28;20537;-63
2023/06/11 07:19:51;;;;;;;10.07;9.07;;;;;;;;;;5096018;28;20499;-63
2023/06/11 07:22:18;;;;;;;10.47;8.90;;;;;;;;;;5094290;28;20442;-63
2023/06/11 07:24:47;;;;;;;9.00;8.30;;;;;;;;;;5095678;28;20511;-62
2023/06/11 07:27:14;;;;;;;10.57;9.77;;;;;;;;;;5095582;28;20513;-63
2023/06/11 07:29:41;;;;;;;10.07;9.10;;;;;;;;;;5096134;28;20450;-63
2023/06/11 07:32:10;;;;;;;10.20;9.23;;;;;;;;;;5095425;28;20431;-62
2023/06/11 07:34:37;;;;;;;9.60;8.60;;;;;;;;;;5095578;28;20836;-62
2023/06/11 07:37:05;;;;;;;9.93;9.07;;;;;;;;;;5095704;28;20449;-63
2023/06/11 07:39:33;;;;;;;9.80;8.90;;;;;;;;;;5096022;28;21039;-62
2023/06/11 07:42:00;;;;;;;9.90;9.00;;;;;;;;;;5095475;28;20444;-63
2023/06/11 07:44:27;;;;;;;9.90;8.90;;;;;;;;;;5095519;28;20483;-63
2023/06/11 07:46:54;;;;;;;9.60;8.70;;;;;;;;;;5095663;28;20442;-62
2023/06/11 07:49:23;;;;;;;10.20;9.40;;;;;;;;;;5094732;28;20462;-63
2023/06/11 07:51:50;;;;;;;9.40;8.70;;;;;;;;;;5094628;28;20455;-62
2023/06/11 07:54:18;;;;;;;9.83;8.83;;;;;;;;;;5094104;28;20489;-63
2023/06/11 07:56:46;;;;;;;11.07;9.97;;;;;;;;;;5095019;28;20451;-62
2023/06/11 07:59:13;;;;;;;9.40;8.50;;;;;;;;;;5095242;28;20442;-63
2023/06/11 08:01:41;;;;;;;13.53;9.47;;;;;;;;;;5094834;28;20448;-62
2023/06/11 08:04:08;;;;;;;9.77;8.87;;;;;;;;;;5094601;28;20457;-63
2023/06/11 08:06:37;;;;;;;10.23;9.33;;;;;;;;;;5095198;28;20439;-63
2023/06/11 08:09:05;;;;;;;10.23;9.23;;;;;;;;;;5095281;28;20447;-63
2023/06/11 08:11:33;;;;;;;9.90;8.90;;;;;;;;;;5094206;28;20504;-63
2023/06/11 08:14:00;;;;;;;10.43;9.60;;;;;;;;;;5076799;28;20474;-63
2023/06/11 08:16:27;;;;;;;9.17;8.33;;;;;;;;;;5074761;28;20445;-63
2023/06/11 08:18:55;;;;;;;9.03;8.23;;;;;;;;;;5074825;28;20448;-63
2023/06/11 08:21:22;;;;;;;9.97;9.17;;;;;;;;;;5074513;28;20533;-63
2023/06/11 08:23:51;;;;;;;12.33;8.60;;;;;;;;;;5074874;28;20540;-63
2023/06/11 08:26:19;;;;;;;10.43;8.50;;;;;;;;;;5074334;28;20445;-63
2023/06/11 08:28:46;;;;;;;9.77;8.97;;;;;;;;;;5074740;28;20445;-63
2023/06/11 08:31:14;;;;;;;10.00;9.20;;;;;;;;;;5074369;28;20568;-62
2023/06/11 08:33:41;;;;;;;12.97;11.87;;;;;;;;;;5074497;28;20480;-63
2023/06/11 08:36:09;;;;;;;14.03;9.30;;;;;;;;;;5074158;28;20902;-63
2023/06/11 08:38:36;;;;;;;11.60;9.43;;;;;;;;;;5074441;28;20453;-63
2023/06/11 08:41:04;;;;;;;11.30;8.20;;;;;;;;;;5074573;28;20451;-63
2023/06/11 08:43:32;;;;;;;9.90;9.10;;;;;;;;;;5074616;28;20490;-62
2023/06/11 08:45:59;;;;;;;11.23;8.20;;;;;;;;;;5074137;28;20433;-63
2023/06/11 08:48:27;;;;;;;11.30;9.47;;;;;;;;;;5074613;28;20439;-62
2023/06/11 08:50:55;;;;;;;10.40;9.27;;;;;;;;;;5073849;28;20452;-64
2023/06/11 08:53:22;;;;;;;8.30;7.70;;;;;;;;;;5074005;28;20573;-63
2023/06/11 08:55:50;;;;;;;9.73;8.97;;;;;;;;;;5073829;28;20899;-63
2023/06/11 08:58:20;;;;;;;9.30;8.60;;;;;;;;;;5073963;28;20447;-63
2023/06/11 09:00:47;;;;;;;11.00;9.07;;;;;;;;;;5073972;28;20508;-63
2023/06/11 09:03:15;;;;;;;9.57;8.40;;;;;;;;;;5073564;28;20457;-63
2023/06/11 09:05:42;;;;;;;10.47;9.40;;;;;;;;;;5083505;28;20445;-64
2023/06/11 09:08:10;;;;;;;9.37;8.57;;;;;;;;;;5093453;28;20438;-63
2023/06/11 09:10:49;;;;;;;10.13;9.23;;;;;;;;;;5093693;28;20543;-63
2023/06/11 09:13:16;;;;;;;10.20;9.23;;;;;;;;;;5093643;28;20468;-62
2023/06/11 09:15:49;;;;;;;8.37;7.67;;;;;;;;;;5094036;28;20533;-62
2023/06/11 09:18:19;;;;;;;10.43;8.80;;;;;;;;;;5093559;28;20924;-62
2023/06/11 09:20:49;;;;;;;9.80;8.80;;;;;;;;;;5093934;28;20430;-62
2023/06/11 09:23:24;;;;;;;12.30;8.87;;;;;;;;;;5094043;28;20413;-61
2023/06/11 09:25:52;;;;;;;9.43;8.53;;;;;;;;;;5093302;28;20434;-64
2023/06/11 09:28:19;;;;;;;12.27;8.10;;;;;;;;;;5093120;28;20445;-63
2023/06/11 09:30:55;;;;;;;13.73;8.60;;;;;;;;;;5093089;28;20449;-64
2023/06/11 09:33:22;;;;;;;8.33;7.53;;;;;;;;;;5093732;28;20429;-61
2023/06/11 09:35:51;;;;;;;8.70;7.70;;;;;;;;;;5093380;28;20448;-62
2023/06/11 09:38:19;;;;;;;10.70;9.70;;;;;;;;;;5093314;28;20445;-62
2023/06/11 09:40:47;;;;;;;9.33;7.90;;;;;;;;;;5093308;28;20443;-62
2023/06/11 09:43:14;;;;;;;8.67;7.87;;;;;;;;;;5093006;28;20472;-62
2023/06/11 09:45:42;;;;;;;9.13;7.50;;;;;;;;;;5092784;28;20454;-62
2023/06/11 09:48:12;;;;;;;11.27;7.60;;;;;;;;;;5092684;28;20498;-62
2023/06/11 09:50:40;;;;;;;9.20;8.40;;;;;;;;;;5093178;28;20434;-62
2023/06/11 09:53:08;;;;;;;8.93;8.13;;;;;;;;;;5093373;28;20435;-62
2023/06/11 09:55:36;;;;;;;10.17;8.03;;;;;;;;;;5093363;28;20467;-62
2023/06/11 09:58:03;;;;;;;7.87;7.27;;;;;;;;;;5092923;28;20446;-62
2023/06/11 10:00:30;;;;;;;10.10;8.00;;;;;;;;;;5093198;28;20429;-62
2023/06/11 10:02:58;;;;;;;8.30;7.30;;;;;;;;;;5093113;28;20439;-63
2023/06/11 10:05:27;;;;;;;8.67;7.00;;;;;;;;;;5092568;28;20504;-62
2023/06/11 10:07:57;;;;;;;12.10;7.23;;;;;;;;;;5092798;28;20429;-63
2023/06/11 10:10:25;;;;;;;9.50;7.40;;;;;;;;;;5092954;28;20453;-63
2023/06/11 10:12:53;;;;;;;8.37;7.67;;;;;;;;;;5093139;28;20449;-62
2023/06/11 10:15:23;;;;;;;8.60;7.60;;;;;;;;;;5093182;28;20448;-62
2023/06/11 10:17:51;;;;;;;8.10;7.40;;;;;;;;;;5095533;28;20457;-62
2023/06/11 10:20:26;;;;;;;8.20;7.50;;;;;;;;;;5097422;28;20424;-62
2023/06/11 10:23:05;;;;;;;8.53;7.83;;;;;;;;;;5097166;28;20405;-62
2023/06/11 10:25:33;;;;;;;7.93;7.13;;;;;;;;;;5097097;28;20422;-63
2023/06/11 10:28:00;;;;;;;9.20;7.53;;;;;;;;;;5096574;28;20409;-63
2023/06/11 10:30:28;;;;;;;11.57;7.80;;;;;;;;;;5096507;28;20474;-62
2023/06/11 10:32:58;;;;;;;9.60;7.00;;;;;;;;;;5096553;28;20450;-62
2023/06/11 10:35:28;;;;;;;7.60;7.00;;;;;;;;;;5097038;28;20534;-62
2023/06/11 10:38:03;;;;;;;9.57;7.47;;;;;;;;;;5097010;28;20412;-62
2023/06/11 10:40:40;;;;;;;10.53;8.80;;;;;;;;;;5097179;28;20788;-62
2023/06/11 10:43:14;;;;;;;9.37;7.70;;;;;;;;;;5097168;28;20397;-62
2023/06/11 10:45:41;;;;;;;9.03;7.70;;;;;;;;;;5096653;28;20419;-63
2023/06/11 10:48:10;;;;;;;7.80;7.10;;;;;;;;;;5095751;28;20421;-62
2023/06/11 10:50:37;;;;;;;11.10;7.13;;;;;;;;;;5096038;28;20425;-63
2023/06/11 10:53:09;;;;;;;13.90;8.30;;;;;;;;;;5096662;28;20752;-63
2023/06/11 10:55:42;;;;;;;9.03;8.33;;;;;;;;;;5096980;28;20477;-62
2023/06/11 10:58:10;;;;;;;9.93;7.97;;;;;;;;;;5096786;28;20871;-62
2023/06/11 11:00:38;;;;;;;7.87;6.70;;;;;;;;;;5096466;28;20940;-63
2023/06/11 11:03:05;;;;;;;9.17;8.10;;;;;;;;;;5096173;28;20414;-62
2023/06/11 11:05:33;;;;;;;10.87;7.73;;;;;;;;;;5096313;28;20419;-63
2023/06/11 11:08:01;;;;;;;8.63;7.60;;;;;;;;;;5095747;28;20800;-62
2023/06/11 11:10:29;;;;;;;8.83;7.40;;;;;;;;;;5095831;28;20505;-62
2023/06/11 11:12:57;;;;;;;7.63;7.03;;;;;;;;;;5096248;28;20462;-62
2023/06/11 11:15:25;;;;;;;10.37;7.93;;;;;;;;;;5096061;28;20475;-62
2023/06/11 11:17:52;;;;;;;8.70;6.97;;;;;;;;;;5095947;28;20421;-62
2023/06/11 11:20:20;;;;;;;8.13;7.43;;;;;;;;;;5095782;28;20914;-62
2023/06/11 11:22:53;;;;;;;8.17;7.37;;;;;;;;;;5096004;28;20542;-62
2023/06/11 11:25:21;;;;;;;8.43;7.63;;;;;;;;;;5095283;28;20470;-62
2023/06/11 11:27:49;;;;;;;8.60;7.90;;;;;;;;;;5094900;28;20820;-62
2023/06/11 11:30:18;;;;;;;12.23;7.80;;;;;;;;;;5094114;28;20443;-62
2023/06/11 11:32:45;;;;;;;9.87;7.93;;;;;;;;;;5095569;28;20505;-63
2023/06/11 11:35:13;;;;;;;7.50;6.80;;;;;;;;;;5095206;28;20477;-63
2023/06/11 11:37:41;;;;;;;11.33;7.50;;;;;;;;;;5095756;28;20792;-63
2023/06/11 11:40:09;;;;;;;14.30;8.00;;;;;;;;;;5095312;28;20430;-63
2023/06/11 11:42:45;;;;;;;8.47;7.30;;;;;;;;;;5095820;28;20454;-63
2023/06/11 11:45:14;;;;;;;8.37;7.60;;;;;;;;;;5095665;28;20442;-63
2023/06/11 11:47:43;;;;;;;7.60;6.90;;;;;;;;;;5094849;28;20419;-63
2023/06/11 11:50:18;;;;;;;8.13;7.50;;;;;;;;;;5094817;28;20847;-63
2023/06/11 11:52:46;;;;;;;9.67;7.30;;;;;;;;;;5095297;28;20937;-63
2023/06/11 11:55:14;;;;;;;7.43;6.77;;;;;;;;;;5095376;28;20976;-63
2023/06/11 11:57:42;;;;;;;7.73;7.00;;;;;;;;;;5095615;28;20436;-63
2023/06/11 12:00:10;;;;;;;9.27;6.90;;;;;;;;;;5095409;28;20418;-63
2023/06/11 12:02:42;;;;;;;8.63;7.73;;;;;;;;;;5095102;28;20507;-63
2023/06/11 12:05:14;;;;;;;11.00;7.10;;;;;;;;;;5095538;28;20404;-63
2023/06/11 12:07:52;;;;;;;7.27;6.57;;;;;;;;;;5095208;28;20423;-63
2023/06/11 12:10:21;;;;;;;8.23;7.43;;;;;;;;;;5095760;28;20522;-63
2023/06/11 12:12:48;;;;;;;7.53;6.83;;;;;;;;;;5094917;28;20451;-63
2023/06/11 12:15:15;;;;;;;9.50;8.20;;;;;;;;;;5095202;28;20481;-63
2023/06/11 12:17:43;;;;;;;11.50;7.47;;;;;;;;;;5094852;28;20992;-63
2023/06/11 12:20:12;;;;;;;7.90;7.20;;;;;;;;;;5095424;28;20796;-63
2023/06/11 12:22:39;;;;;;;7.77;7.07;;;;;;;;;;5094805;28;20446;-62
2023/06/11 12:25:07;;;;;;;7.20;6.60;;;;;;;;;;5094957;28;20422;-63
2023/06/11 12:27:35;;;;;;;11.17;7.00;;;;;;;;;;5094940;28;20411;-63
2023/06/11 12:30:03;;;;;;;7.53;6.80;;;;;;;;;;5094752;28;20482;-63
2023/06/11 12:32:31;;;;;;;10.40;7.30;;;;;;;;;;5095215;28;20485;-62
2023/06/11 12:34:58;;;;;;;8.13;7.30;;;;;;;;;;5094201;28;20478;-63
2023/06/11 12:37:28;;;;;;;8.40;7.60;;;;;;;;;;5093565;28;20978;-63
2023/06/11 12:39:55;;;;;;;8.70;7.80;;;;;;;;;;5094152;28;20446;-63
2023/06/11 12:42:22;;;;;;;8.40;7.00;;;;;;;;;;5094577;28;20998;-63
2023/06/11 12:44:50;;;;;;;8.07;7.03;;;;;;;;;;5094576;28;20450;-63
2023/06/11 12:47:18;;;;;;;9.33;7.40;;;;;;;;;;5094059;28;20447;-63
2023/06/11 12:49:45;;;;;;;7.93;7.13;;;;;;;;;;5094357;28;20447;-63
2023/06/11 12:52:13;;;;;;;7.93;6.73;;;;;;;;;;5094426;28;20440;-61
2023/06/11 12:54:41;;;;;;;12.20;7.00;;;;;;;;;;5094379;28;20481;-63
2023/06/11 12:57:11;;;;;;;10.40;7.50;;;;;;;;;;5093396;28;20443;-63
2023/06/11 12:59:39;;;;;;;8.03;7.27;;;;;;;;;;5093794;28;20449;-63
2023/06/11 13:02:07;;;;;;;13.13;6.97;;;;;;;;;;5093652;28;20454;-63
2023/06/11 13:04:34;;;;;;;7.50;6.70;;;;;;;;;;5094278;28;20434;-63
2023/06/11 13:07:01;;;;;;;8.10;7.30;;;;;;;;;;5094027;28;20446;-63
2023/06/11 13:09:28;;;;;;;7.13;6.53;;;;;;;;;;5093932;28;20445;-63
2023/06/11 13:11:57;;;;;;;7.37;6.77;;;;;;;;;;5094121;28;20447;-63
2023/06/11 13:14:24;;;;;;;8.20;7.50;;;;;;;;;;5093778;28;20475;-63
2023/06/11 13:16:51;;;;;;;10.30;6.53;;;;;;;;;;5093267;28;20484;-63
2023/06/11 13:19:19;;;;;;;7.60;6.83;;;;;;;;;;5093200;28;20439;-63
2023/06/11 13:21:46;;;;;;;7.67;6.97;;;;;;;;;;5093480;28;20453;-63
2023/06/11 13:24:14;;;;;;;7.73;6.97;;;;;;;;;;5094154;28;20445;-63
2023/06/11 13:26:42;;;;;;;7.67;6.60;;;;;;;;;;5093988;28;20522;-63
2023/06/11 13:29:11;;;;;;;7.63;6.70;;;;;;;;;;5093286;28;20984;-63
2023/06/11 13:31:39;;;;;;;7.60;6.80;;;;;;;;;;5093658;28;20475;-63
2023/06/11 13:34:06;;;;;;;7.20;6.70;;;;;;;;;;5093728;28;20493;-63
2023/06/11 13:36:35;;;;;;;8.43;7.60;;;;;;;;;;5092285;28;21018;-64
2023/06/11 13:39:03;;;;;;;7.63;6.90;;;;;;;;;;5092690;28;20455;-63
2023/06/11 13:41:30;;;;;;;7.33;6.50;;;;;;;;;;5092415;28;20443;-63
2023/06/11 13:43:57;;;;;;;7.43;6.83;;;;;;;;;;5092981;28;20441;-63
2023/06/11 13:46:25;;;;;;;9.43;7.13;;;;;;;;;;5093451;28;20444;-64
2023/06/11 13:48:53;;;;;;;9.77;7.10;;;;;;;;;;5093271;28;20454;-63
2023/06/11 13:51:20;;;;;;;12.67;6.80;;;;;;;;;;5092251;28;20441;-64
2023/06/11 13:53:48;;;;;;;9.03;7.03;;;;;;;;;;5092916;28;20452;-64
2023/06/11 13:56:15;;;;;;;8.20;7.40;;;;;;;;;;5092931;28;20571;-64
2023/06/11 13:58:42;;;;;;;8.30;7.50;;;;;;;;;;5092196;28;20443;-64
2023/06/11 14:01:09;;;;;;;9.20;7.80;;;;;;;;;;5092136;28;20931;-63
2023/06/11 14:03:38;;;;;;;7.17;6.57;;;;;;;;;;5092837;28;20527;-64
2023/06/11 14:06:07;;;;;;;8.37;7.57;;;;;;;;;;5093066;28;20546;-64
2023/06/11 14:08:34;;;;;;;6.67;6.20;;;;;;;;;;5092879;28;20446;-63
2023/06/11 14:11:02;;;;;;;7.77;7.07;;;;;;;;;;5093058;28;20524;-63
2023/06/11 14:13:30;;;;;;;8.07;6.10;;;;;;;;;;5093464;28;20446;-64
2023/06/11 14:15:57;;;;;;;6.20;5.60;;;;;;;;;;5093081;28;20462;-64
2023/06/11 14:18:24;;;;;;;11.43;6.60;;;;;;;;;;5091590;28;20441;-65
2023/06/11 14:20:53;;;;;;;7.97;7.07;;;;;;;;;;5092203;28;20755;-64
2023/06/11 14:23:20;;;;;;;6.60;6.10;;;;;;;;;;5092647;28;20449;-62
2023/06/11 14:25:47;;;;;;;10.43;6.17;;;;;;;;;;5092541;28;20455;-62
2023/06/11 14:28:14;;;;;;;8.90;7.03;;;;;;;;;;5092936;28;20479;-63
2023/06/11 14:30:41;;;;;;;7.67;7.07;;;;;;;;;;5092267;28;20471;-64
2023/06/11 14:33:08;;;;;;;6.97;6.17;;;;;;;;;;5092523;28;20924;-62
2023/06/11 14:35:36;;;;;;;8.60;6.07;;;;;;;;;;5092412;28;21007;-62
2023/06/11 14:38:04;;;;;;;8.20;6.03;;;;;;;;;;5092630;28;20454;-63